createdAt,value
2019-01-02T00:02:07.092Z,75.50
2019-01-02T00:04:16.494Z,75.40
2019-01-02T00:06:26.039Z,75.30
2019-01-02T00:08:34.999Z,75.30
2019-01-02T00:10:44.695Z,75.20
2019-01-02T00:12:53.623Z,75.00
2019-01-02T00:15:02.599Z,74.90
2019-01-02T00:17:11.603Z,74.80
2019-01-02T00:19:20.279Z,74.80
2019-01-02T00:21:29.320Z,74.80
2019-01-02T00:23:38.155Z,74.60
2019-01-02T00:25:47.078Z,74.60
2019-01-02T00:27:56.731Z,74.40
2019-01-02T00:30:06.306Z,74.30
2019-01-02T00:32:15.092Z,74.40
2019-01-02T00:34:24.200Z,75.00
2019-01-02T00:36:33.394Z,74.20
2019-01-02T00:38:42.249Z,74.00
2019-01-02T00:40:51.112Z,74.00
2019-01-02T00:42:59.911Z,74.00
2019-01-02T00:45:08.710Z,73.80
2019-01-02T00:47:17.753Z,73.50
2019-01-02T00:49:26.511Z,73.40
2019-01-02T00:51:35.273Z,74.20
2019-01-02T00:53:44.116Z,73.40
2019-01-02T00:55:53.699Z,73.20
2019-01-02T00:58:02.708Z,73.20
2019-01-02T01:00:14.015Z,73.10
2019-01-02T01:02:22.759Z,73.00
2019-01-02T01:04:31.486Z,73.00
2019-01-02T01:06:41.018Z,73.10
2019-01-02T01:08:50.507Z,73.60
2019-01-02T01:10:59.360Z,73.20
2019-01-02T01:13:08.211Z,73.10
2019-01-02T01:15:17.100Z,73.00
2019-01-02T01:17:25.760Z,72.90
2019-01-02T01:19:34.535Z,72.80
2019-01-02T01:21:43.407Z,72.70
2019-01-02T01:23:53.079Z,72.60
2019-01-02T01:26:02.752Z,72.60
2019-01-02T01:28:11.534Z,72.50
2019-01-02T01:30:20.321Z,72.60
2019-01-02T01:32:29.912Z,72.60
2019-01-02T01:34:38.735Z,72.50
2019-01-02T01:36:47.594Z,72.60
2019-01-02T01:38:57.415Z,73.00
2019-01-02T01:41:06.240Z,72.30
2019-01-02T01:43:15.137Z,72.20
2019-01-02T01:45:23.870Z,72.10
2019-01-02T01:47:32.879Z,72.00
2019-01-02T01:49:41.611Z,72.00
2019-01-02T01:51:51.339Z,71.90
2019-01-02T01:54:00.263Z,71.80
2019-01-02T01:56:08.949Z,71.70
2019-01-02T01:58:17.899Z,71.60
2019-01-02T02:00:27.310Z,71.50
2019-01-02T02:02:36.011Z,71.40
2019-01-02T02:04:44.899Z,71.30
2019-01-02T02:06:55.212Z,71.20
2019-01-02T02:09:03.995Z,71.10
2019-01-02T02:11:12.796Z,71.10
2019-01-02T02:13:21.555Z,71.00
2019-01-02T02:15:30.270Z,70.80
2019-01-02T02:17:39.224Z,70.70
2019-01-02T02:19:48.022Z,71.40
2019-01-02T02:21:57.068Z,70.60
2019-01-02T02:24:06.007Z,70.50
2019-01-02T02:26:16.627Z,70.40
2019-01-02T02:28:25.667Z,70.30
2019-01-02T02:30:34.353Z,70.30
2019-01-02T02:32:43.134Z,70.30
2019-01-02T02:34:51.994Z,70.20
2019-01-02T02:37:00.914Z,70.20
2019-01-02T02:39:09.843Z,70.10
2019-01-02T02:41:18.559Z,70.00
2019-01-02T02:43:27.247Z,69.90
2019-01-02T02:45:35.988Z,69.90
2019-01-02T02:47:44.924Z,69.90
2019-01-02T02:49:54.351Z,69.80
2019-01-02T02:52:03.715Z,69.80
2019-01-02T02:54:12.557Z,69.70
2019-01-02T02:56:21.528Z,69.40
2019-01-02T02:58:30.759Z,70.10
2019-01-02T03:00:39.521Z,69.30
2019-01-02T03:02:49.078Z,69.20
2019-01-02T03:04:57.930Z,69.10
2019-01-02T03:07:06.651Z,68.90
2019-01-02T03:09:15.470Z,68.80
2019-01-02T03:11:25.069Z,68.40
2019-01-02T03:13:35.426Z,68.30
2019-01-02T03:15:44.363Z,68.30
2019-01-02T03:17:53.948Z,68.10
2019-01-02T03:20:02.633Z,68.10
2019-01-02T03:22:11.454Z,68.00
2019-01-02T03:24:19.978Z,68.00
2019-01-02T03:26:28.697Z,68.00
2019-01-02T03:28:37.587Z,68.00
2019-01-02T03:30:47.116Z,68.00
2019-01-02T03:32:55.759Z,67.90
2019-01-02T03:35:04.646Z,67.80
2019-01-02T03:37:14.878Z,67.50
2019-01-02T03:39:23.978Z,67.40
2019-01-02T03:41:33.602Z,67.50
2019-01-02T03:43:43.379Z,67.20
2019-01-02T03:45:52.670Z,67.10
2019-01-02T03:48:01.803Z,67.00
2019-01-02T03:50:12.482Z,67.00
2019-01-02T03:52:21.259Z,67.10
2019-01-02T03:54:30.037Z,67.00
2019-01-02T03:56:38.711Z,66.90
2019-01-02T03:58:47.541Z,66.80
2019-01-02T04:00:56.465Z,66.90
2019-01-02T04:03:05.042Z,66.70
2019-01-02T04:05:13.954Z,66.70
2019-01-02T04:07:23.847Z,66.60
2019-01-02T04:09:32.576Z,66.60
2019-01-02T04:11:42.030Z,66.50
2019-01-02T04:13:51.415Z,66.40
2019-01-02T04:16:00.046Z,66.30
2019-01-02T04:18:09.816Z,66.20
2019-01-02T04:20:19.433Z,66.20
2019-01-02T04:22:28.181Z,66.20
2019-01-02T04:24:36.891Z,65.90
2019-01-02T04:26:45.783Z,65.90
2019-01-02T04:28:54.575Z,65.80
2019-01-02T04:31:03.420Z,65.60
2019-01-02T04:33:12.451Z,65.50
2019-01-02T04:35:21.155Z,65.50
2019-01-02T04:37:30.806Z,65.50
2019-01-02T04:39:39.516Z,65.40
2019-01-02T04:41:48.437Z,66.10
2019-01-02T04:43:57.358Z,65.30
2019-01-02T04:46:06.391Z,65.30
2019-01-02T04:48:15.498Z,65.30
2019-01-02T04:50:25.123Z,65.50
2019-01-02T04:52:33.846Z,65.40
2019-01-02T04:54:42.652Z,65.50
2019-01-02T04:56:51.580Z,65.40
2019-01-02T04:59:00.330Z,66.10
2019-01-02T05:01:09.146Z,65.40
2019-01-02T05:03:17.870Z,66.20
2019-01-02T05:05:26.902Z,65.50
2019-01-02T05:07:35.700Z,65.50
2019-01-02T05:09:44.587Z,65.40
2019-01-02T05:11:53.353Z,65.40
2019-01-02T05:14:02.114Z,65.40
2019-01-02T05:16:10.879Z,65.50
2019-01-02T05:18:19.815Z,65.50
2019-01-02T05:20:28.572Z,65.40
2019-01-02T05:22:37.655Z,65.40
2019-01-02T05:24:46.675Z,65.40
2019-01-02T05:26:55.902Z,65.40
2019-01-02T05:29:04.806Z,65.30
2019-01-02T05:31:13.753Z,66.00
2019-01-02T05:33:22.739Z,65.20
2019-01-02T05:35:32.378Z,65.00
2019-01-02T05:37:41.334Z,65.00
2019-01-02T05:39:50.243Z,64.80
2019-01-02T05:41:59.895Z,64.60
2019-01-02T05:44:08.598Z,64.60
2019-01-02T05:46:17.218Z,64.60
2019-01-02T05:48:26.043Z,64.50
2019-01-02T05:50:35.933Z,64.60
2019-01-02T05:52:44.506Z,64.50
2019-01-02T05:54:53.433Z,64.60
2019-01-02T05:57:02.015Z,64.30
2019-01-02T05:59:10.870Z,64.40
2019-01-02T06:01:19.790Z,64.40
2019-01-02T06:03:28.714Z,64.40
2019-01-02T06:05:37.434Z,65.10
2019-01-02T06:07:46.046Z,64.30
2019-01-02T06:09:54.700Z,64.30
2019-01-02T06:12:04.594Z,63.90
2019-01-02T06:14:13.534Z,64.00
2019-01-02T06:16:22.663Z,64.00
2019-01-02T06:18:32.875Z,64.00
2019-01-02T06:20:41.422Z,64.00
2019-01-02T06:22:50.962Z,64.40
2019-01-02T06:24:59.676Z,64.00
2019-01-02T06:27:08.603Z,63.90
2019-01-02T06:29:17.406Z,63.80
2019-01-02T06:31:27.015Z,63.80
2019-01-02T06:33:36.593Z,63.80
2019-01-02T06:35:45.502Z,63.70
2019-01-02T06:37:54.227Z,63.80
2019-01-02T06:40:03.844Z,63.60
2019-01-02T06:42:12.799Z,63.50
2019-01-02T06:44:21.458Z,63.50
2019-01-02T06:46:30.014Z,63.50
2019-01-02T06:48:38.755Z,63.40
2019-01-02T06:50:47.747Z,63.40
2019-01-02T06:52:56.394Z,63.40
2019-01-02T06:55:06.178Z,63.30
2019-01-02T06:57:15.670Z,63.30
2019-01-02T06:59:24.391Z,63.20
2019-01-02T07:01:33.210Z,63.20
2019-01-02T07:03:42.054Z,63.20
2019-01-02T07:05:50.830Z,63.10
2019-01-02T07:07:59.785Z,63.10
2019-01-02T07:10:08.563Z,63.10
2019-01-02T07:12:17.408Z,63.10
2019-01-02T07:14:26.206Z,63.10
2019-01-02T07:16:35.138Z,63.10
2019-01-02T07:18:44.474Z,63.30
2019-01-02T07:20:53.379Z,63.30
2019-01-02T07:23:02.347Z,63.20
2019-01-02T07:25:10.934Z,63.20
2019-01-02T07:27:20.473Z,63.30
2019-01-02T07:29:29.194Z,63.20
2019-01-02T07:31:38.021Z,63.10
2019-01-02T07:33:47.903Z,63.10
2019-01-02T07:36:02.610Z,63.10
2019-01-02T07:38:27.098Z,63.00
2019-01-02T07:40:59.987Z,63.00
2019-01-02T07:43:26.110Z,63.00
2019-01-02T07:45:39.672Z,63.10
2019-01-02T07:48:08.934Z,62.90
2019-01-02T07:50:29.418Z,62.90
2019-01-02T07:52:41.161Z,62.90
2019-01-02T07:54:55.943Z,62.90
2019-01-02T07:57:09.550Z,63.00
2019-01-02T07:59:37.856Z,63.70
2019-01-02T08:01:49.186Z,63.10
2019-01-02T08:04:18.428Z,63.90
2019-01-02T08:06:36.027Z,63.20
2019-01-02T08:09:03.091Z,63.80
2019-01-02T08:11:20.663Z,63.20
2019-01-02T08:13:55.083Z,63.20
2019-01-02T08:16:18.853Z,63.20
2019-01-02T08:18:40.226Z,64.00
2019-01-02T08:20:49.902Z,63.10
2019-01-02T08:23:15.452Z,64.00
2019-01-02T08:25:34.065Z,63.30
2019-01-02T08:27:54.642Z,63.30
2019-01-02T08:30:20.483Z,63.20
2019-01-02T08:32:44.874Z,63.20
2019-01-02T08:34:59.762Z,63.20
2019-01-02T08:37:28.307Z,63.20
2019-01-02T08:39:56.641Z,63.30
2019-01-02T08:42:34.834Z,63.10
2019-01-02T08:44:49.241Z,63.80
2019-01-02T08:47:09.781Z,62.90
2019-01-02T08:49:21.927Z,63.10
2019-01-02T08:51:37.514Z,63.00
2019-01-02T08:54:14.729Z,63.30
2019-01-02T08:56:28.928Z,63.30
2019-01-02T08:58:46.579Z,63.30
2019-01-02T09:00:58.726Z,63.30
2019-01-02T09:03:20.192Z,63.30
2019-01-02T09:05:48.343Z,63.50
2019-01-02T09:08:16.702Z,63.40
2019-01-02T09:10:45.943Z,63.50
2019-01-02T09:12:58.582Z,63.30
2019-01-02T09:15:31.943Z,63.00
2019-01-02T09:17:51.479Z,64.00
2019-01-02T09:20:03.002Z,63.20
2019-01-02T09:22:28.522Z,63.00
2019-01-02T09:24:44.869Z,63.10
2019-01-02T09:27:11.342Z,63.10
2019-01-02T09:29:43.400Z,63.30
2019-01-02T09:32:04.263Z,63.20
2019-01-02T09:34:38.824Z,62.90
2019-01-02T09:36:58.515Z,63.00
2019-01-02T09:39:10.910Z,62.80
2019-01-02T09:41:21.939Z,63.00
2019-01-02T09:43:40.631Z,62.90
2019-01-02T09:45:50.390Z,63.60
2019-01-02T09:48:10.804Z,62.90
2019-01-02T09:50:38.096Z,62.80
2019-01-02T09:53:05.483Z,62.80
2019-01-02T09:55:34.982Z,62.70
2019-01-02T09:58:05.376Z,63.50
2019-01-02T10:00:27.693Z,62.60
2019-01-02T10:02:42.198Z,62.60
2019-01-02T10:05:07.706Z,62.60
2019-01-02T10:07:20.755Z,62.60
2019-01-02T10:09:50.417Z,62.40
2019-01-02T10:12:08.783Z,62.20
2019-01-02T10:14:26.400Z,62.10
2019-01-02T10:16:44.742Z,62.10
2019-01-02T10:19:01.312Z,62.10
2019-01-02T10:21:24.714Z,61.90
2019-01-02T10:23:37.834Z,62.50
2019-01-02T10:25:57.531Z,61.60
2019-01-02T10:28:22.737Z,61.60
2019-01-02T10:33:44.458Z,61.00
2019-01-02T10:35:54.750Z,60.90
2019-01-02T10:38:06.422Z,60.70
2019-01-02T10:40:51.314Z,60.60
2019-01-02T10:43:08.049Z,60.50
2019-01-02T10:45:28.654Z,60.00
2019-01-02T10:47:43.616Z,60.20
2019-01-02T10:49:59.817Z,60.10
2019-01-02T10:52:28.414Z,61.10
2019-01-02T10:55:01.755Z,60.40
2019-01-02T10:57:32.429Z,60.50
2019-01-02T11:00:14.519Z,61.20
2019-01-02T11:02:53.916Z,60.50
2019-01-02T11:05:08.595Z,61.20
2019-01-02T11:07:37.198Z,60.40
2019-01-02T11:09:58.682Z,61.20
2019-01-02T11:12:26.071Z,60.10
2019-01-02T11:14:55.679Z,60.10
2019-01-02T11:17:09.109Z,60.10
2019-01-02T11:19:42.798Z,60.40
2019-01-02T11:21:57.252Z,61.60
2019-01-02T11:24:15.391Z,61.10
2019-01-02T11:26:48.994Z,61.00
2019-01-02T11:29:01.296Z,61.70
2019-01-02T11:31:17.391Z,61.20
2019-01-02T11:33:36.875Z,61.10
2019-01-02T11:35:54.183Z,61.30
2019-01-02T11:38:05.647Z,62.10
2019-01-02T11:40:37.021Z,61.30
2019-01-02T11:43:06.703Z,61.30
2019-01-02T11:45:15.438Z,61.20
2019-01-02T11:47:24.467Z,61.70
2019-01-02T11:49:33.121Z,61.70
2019-01-02T11:51:41.992Z,61.00
2019-01-02T11:53:50.906Z,61.10
2019-01-02T11:56:00.107Z,60.50
2019-01-02T11:58:08.765Z,60.10
2019-01-02T12:00:17.563Z,59.90
2019-01-02T12:02:34.083Z,59.70
2019-01-02T12:04:36.743Z,59.70
2019-01-02T12:06:46.503Z,59.20
2019-01-02T12:08:55.114Z,59.10
2019-01-02T12:11:04.836Z,58.10
2019-01-02T12:13:13.466Z,58.00
2019-01-02T12:15:22.400Z,57.50
2019-01-02T12:17:31.334Z,57.50
2019-01-02T12:19:39.946Z,57.50
2019-01-02T12:21:48.745Z,57.40
2019-01-02T12:23:58.187Z,56.90
2019-01-02T12:26:06.906Z,56.90
2019-01-02T12:28:16.627Z,57.30
2019-01-02T12:30:26.289Z,55.90
2019-01-02T12:32:34.969Z,55.80
2019-01-02T12:34:43.618Z,55.80
2019-01-02T12:36:53.084Z,55.60
2019-01-02T12:39:01.923Z,55.80
2019-01-02T12:41:11.486Z,56.10
2019-01-02T12:43:20.021Z,56.20
2019-01-02T12:45:28.865Z,55.50
2019-01-02T12:47:38.586Z,55.50
2019-01-02T12:49:48.191Z,55.70
2019-01-02T12:51:56.903Z,55.60
2019-01-02T12:54:05.718Z,55.30
2019-01-02T12:56:14.381Z,55.00
2019-01-02T12:58:23.899Z,54.60
2019-01-02T13:00:32.630Z,54.40
2019-01-02T13:03:05.774Z,53.80
2019-01-02T13:05:30.502Z,53.40
2019-01-02T13:07:55.924Z,53.60
2019-01-02T13:10:08.142Z,53.50
2019-01-02T13:12:36.278Z,52.70
2019-01-02T13:14:49.925Z,52.50
2019-01-02T13:17:16.267Z,52.30
2019-01-02T13:19:27.334Z,51.80
2019-01-02T13:21:52.667Z,52.10
2019-01-02T13:24:02.172Z,52.10
2019-01-02T13:26:14.679Z,52.00
2019-01-02T13:28:35.074Z,51.30
2019-01-02T13:31:02.721Z,51.30
2019-01-02T13:33:17.880Z,51.20
2019-01-02T13:35:34.341Z,50.60
2019-01-02T13:37:52.639Z,50.70
2019-01-02T13:40:24.894Z,50.70
2019-01-02T13:42:36.659Z,50.80
2019-01-02T13:44:48.282Z,50.70
2019-01-02T13:47:01.405Z,51.30
2019-01-02T13:49:29.959Z,49.70
2019-01-02T13:51:38.697Z,49.40
2019-01-02T13:53:48.546Z,48.80
2019-01-02T13:55:57.263Z,48.70
2019-01-02T13:58:05.976Z,48.70
2019-01-02T14:00:15.517Z,48.20
2019-01-02T14:02:24.540Z,48.30
2019-01-02T14:04:34.235Z,47.60
2019-01-02T14:06:42.943Z,47.50
2019-01-02T14:08:51.784Z,47.00
2019-01-02T14:11:00.754Z,47.80
2019-01-02T14:13:09.563Z,46.90
2019-01-02T14:15:18.510Z,46.10
2019-01-02T14:17:27.466Z,46.10
2019-01-02T14:19:36.302Z,45.60
2019-01-02T14:21:46.715Z,46.00
2019-01-02T14:23:57.144Z,45.70
2019-01-02T14:26:06.780Z,46.50
2019-01-02T14:28:15.714Z,45.80
2019-01-02T14:30:25.138Z,46.10
2019-01-02T14:32:34.598Z,46.10
2019-01-02T14:34:44.162Z,46.00
2019-01-02T14:36:53.583Z,46.00
2019-01-02T14:39:02.446Z,45.90
2019-01-02T14:41:12.002Z,45.50
2019-01-02T14:43:20.836Z,45.40
2019-01-02T14:45:30.326Z,45.10
2019-01-02T14:47:39.014Z,45.10
2019-01-02T14:49:47.910Z,44.70
2019-01-02T14:51:56.731Z,44.70
2019-01-02T14:54:05.287Z,44.60
2019-01-02T14:56:14.170Z,44.20
2019-01-02T14:58:22.878Z,43.80
2019-01-02T15:00:31.786Z,43.70
2019-01-02T15:02:41.299Z,43.60
2019-01-02T15:04:50.765Z,43.40
2019-01-02T15:06:59.686Z,43.40
2019-01-02T15:09:08.386Z,43.50
2019-01-02T15:11:17.322Z,43.40
2019-01-02T15:13:25.874Z,43.60
2019-01-02T15:15:34.723Z,44.40
2019-01-02T15:17:43.575Z,43.80
2019-01-02T15:19:53.189Z,43.60
2019-01-02T15:22:05.011Z,44.10
2019-01-02T15:24:11.366Z,44.10
2019-01-02T15:26:20.235Z,44.10
2019-01-02T15:28:29.099Z,44.20
2019-01-02T15:30:38.539Z,44.30
2019-01-02T15:32:47.137Z,44.40
2019-01-02T15:34:55.954Z,44.50
2019-01-02T15:37:04.905Z,44.30
2019-01-02T15:39:13.412Z,45.10
2019-01-02T15:41:22.031Z,44.50
2019-01-02T15:43:32.234Z,44.70
2019-01-02T15:45:41.055Z,44.50
2019-01-02T15:47:50.771Z,44.50
2019-01-02T15:50:00.312Z,44.50
2019-01-02T15:52:08.950Z,44.40
2019-01-02T15:54:17.820Z,44.50
2019-01-02T15:56:26.631Z,45.00
2019-01-02T15:58:35.283Z,44.50
2019-01-02T16:00:44.138Z,44.50
2019-01-02T16:02:52.838Z,44.60
2019-01-02T16:05:02.564Z,44.60
2019-01-02T16:07:12.058Z,44.70
2019-01-02T16:09:20.682Z,44.70
2019-01-02T16:11:29.498Z,44.70
2019-01-02T16:13:39.062Z,45.30
2019-01-02T16:15:47.690Z,44.70
2019-01-02T16:17:56.675Z,44.70
2019-01-02T16:20:05.453Z,44.70
2019-01-02T16:22:14.251Z,44.60
2019-01-02T16:24:23.042Z,44.70
2019-01-02T16:26:31.726Z,44.70
2019-01-02T16:28:40.878Z,44.70
2019-01-02T16:30:49.691Z,44.70
2019-01-02T16:32:58.359Z,44.70
2019-01-02T16:35:08.258Z,45.30
2019-01-02T16:37:17.086Z,44.70
2019-01-02T16:39:25.741Z,44.60
2019-01-02T16:41:34.510Z,44.70
2019-01-02T16:43:43.302Z,45.40
2019-01-02T16:45:52.255Z,44.80
2019-01-02T16:48:01.794Z,44.90
2019-01-02T16:50:10.605Z,44.80
2019-01-02T16:52:19.537Z,44.80
2019-01-02T16:54:28.758Z,44.80
2019-01-02T16:56:37.307Z,44.70
2019-01-02T16:58:46.293Z,44.80
2019-01-02T17:00:54.786Z,44.80
2019-01-02T17:03:03.551Z,44.80
2019-01-02T17:05:12.464Z,44.80
2019-01-02T17:07:21.963Z,44.60
2019-01-02T17:09:30.599Z,44.60
2019-01-02T17:11:39.473Z,44.60
2019-01-02T17:13:48.919Z,45.40
2019-01-02T17:15:58.287Z,44.80
2019-01-02T17:18:07.826Z,44.70
2019-01-02T17:20:17.298Z,44.70
2019-01-02T17:22:26.429Z,44.70
2019-01-02T17:24:35.921Z,44.70
2019-01-02T17:26:45.460Z,44.80
2019-01-02T17:28:54.990Z,44.70
2019-01-02T17:31:04.438Z,45.40
2019-01-02T17:33:13.130Z,44.70
2019-01-02T17:35:22.644Z,44.90
2019-01-02T17:37:32.083Z,45.00
2019-01-02T17:39:41.128Z,44.80
2019-01-02T17:41:50.519Z,45.00
2019-01-02T17:43:59.347Z,45.10
2019-01-02T17:46:08.026Z,45.60
2019-01-02T17:48:17.826Z,45.10
2019-01-02T17:50:26.398Z,45.20
2019-01-02T17:52:35.091Z,45.20
2019-01-02T17:54:44.675Z,45.20
2019-01-02T17:56:52.731Z,45.30
2019-01-02T17:59:01.454Z,45.40
2019-01-02T18:01:10.188Z,45.60
2019-01-02T18:03:19.655Z,45.60
2019-01-02T18:05:28.413Z,46.00
2019-01-02T18:07:37.126Z,46.20
2019-01-02T18:09:46.215Z,46.40
2019-01-02T18:11:54.953Z,46.70
2019-01-02T18:14:03.862Z,46.90
2019-01-02T18:16:12.826Z,47.00
2019-01-02T18:18:21.539Z,47.30
2019-01-02T18:20:30.469Z,47.50
2019-01-02T18:22:39.183Z,47.80
2019-01-02T18:24:48.791Z,48.20
2019-01-02T18:26:57.500Z,48.20
2019-01-02T18:29:06.558Z,49.00
2019-01-02T18:31:15.171Z,48.70
2019-01-02T18:33:24.914Z,49.20
2019-01-02T18:35:33.633Z,49.10
2019-01-02T18:37:43.774Z,49.40
2019-01-02T18:39:53.324Z,49.80
2019-01-02T18:42:02.011Z,49.70
2019-01-02T18:44:12.567Z,50.10
2019-01-02T18:46:21.214Z,50.00
2019-01-02T18:48:30.548Z,50.10
2019-01-02T18:50:39.637Z,50.20
2019-01-02T18:52:49.626Z,50.50
2019-01-02T18:54:58.195Z,50.40
2019-01-02T18:57:07.774Z,50.40
2019-01-02T18:59:16.589Z,50.70
2019-01-02T19:01:25.992Z,50.90
2019-01-02T19:03:34.742Z,50.90
2019-01-02T19:05:43.775Z,51.00
2019-01-02T19:07:53.107Z,51.40
2019-01-02T19:10:01.954Z,51.40
2019-01-02T19:12:11.018Z,51.50
2019-01-02T19:14:19.834Z,51.70
2019-01-02T19:16:28.366Z,51.90
2019-01-02T19:18:36.964Z,52.00
2019-01-02T19:20:45.826Z,52.10
2019-01-02T19:22:54.634Z,52.20
2019-01-02T19:25:04.072Z,52.40
2019-01-02T19:27:14.199Z,52.50
2019-01-02T19:29:24.088Z,52.50
2019-01-02T19:31:33.494Z,52.50
2019-01-02T19:33:43.126Z,52.80
2019-01-02T19:35:52.014Z,52.70
2019-01-02T19:38:00.992Z,52.80
2019-01-02T19:40:09.704Z,52.90
2019-01-02T19:42:18.514Z,53.20
2019-01-02T19:44:27.441Z,53.30
2019-01-02T19:46:36.574Z,53.90
2019-01-02T19:48:49.386Z,53.40
2019-01-02T19:50:58.507Z,53.50
2019-01-02T19:53:07.434Z,53.60
2019-01-02T19:55:17.068Z,53.80
2019-01-02T19:57:25.783Z,53.80
2019-01-02T19:59:34.811Z,53.80
2019-01-02T20:01:43.736Z,53.80
2019-01-02T20:03:53.171Z,53.80
2019-01-02T20:06:02.979Z,54.40
2019-01-02T20:08:11.806Z,53.90
2019-01-02T20:10:20.425Z,53.90
2019-01-02T20:12:29.477Z,53.90
2019-01-02T20:14:38.086Z,54.00
2019-01-02T20:16:46.890Z,53.90
2019-01-02T20:18:56.436Z,54.10
2019-01-02T20:21:05.258Z,54.00
2019-01-02T20:23:14.391Z,54.10
2019-01-02T20:25:23.306Z,54.00
2019-01-02T20:27:32.925Z,54.10
2019-01-02T20:29:41.775Z,54.10
2019-01-02T20:31:50.415Z,54.10
2019-01-02T20:33:59.336Z,54.10
2019-01-02T20:36:08.055Z,54.20
2019-01-02T20:38:16.922Z,54.20
2019-01-02T20:40:25.979Z,54.80
2019-01-02T20:42:34.758Z,54.30
2019-01-02T20:44:43.411Z,54.40
2019-01-02T20:46:52.871Z,54.60
2019-01-02T20:49:04.115Z,54.70
2019-01-02T20:51:12.808Z,54.60
2019-01-02T20:53:22.482Z,54.60
2019-01-02T20:55:31.194Z,54.60
2019-01-02T20:57:40.115Z,55.20
2019-01-02T20:59:48.964Z,54.60
2019-01-02T21:01:58.836Z,54.90
2019-01-02T21:04:07.486Z,54.80
2019-01-02T21:06:16.422Z,54.90
2019-01-02T21:08:25.331Z,55.00
2019-01-02T21:10:34.154Z,55.00
2019-01-02T21:12:43.962Z,55.80
2019-01-02T21:14:52.825Z,55.20
2019-01-02T21:17:01.747Z,55.20
2019-01-02T21:19:11.215Z,55.20
2019-01-02T21:21:19.894Z,55.30
2019-01-02T21:23:29.639Z,55.30
2019-01-02T21:25:38.498Z,55.10
2019-01-02T21:27:48.107Z,55.10
2019-01-02T21:29:56.842Z,55.10
2019-01-02T21:32:05.594Z,55.20
2019-01-02T21:34:15.042Z,55.50
2019-01-02T21:36:24.483Z,55.50
2019-01-02T21:38:34.060Z,55.50
2019-01-02T21:40:43.446Z,55.50
2019-01-02T21:42:52.236Z,55.60
2019-01-02T21:45:01.303Z,55.70
2019-01-02T21:47:09.886Z,55.80
2019-01-02T21:49:21.208Z,56.00
2019-01-02T21:51:29.522Z,55.90
2019-01-02T21:53:38.443Z,55.90
2019-01-02T21:55:48.251Z,56.10
2019-01-02T21:57:58.042Z,56.10
2019-01-02T22:00:06.819Z,56.20
2019-01-02T22:02:16.419Z,56.40
2019-01-02T22:04:25.775Z,56.40
2019-01-02T22:06:34.682Z,57.10
2019-01-02T22:08:43.433Z,56.60
2019-01-02T22:10:53.147Z,56.80
2019-01-02T22:13:02.743Z,56.70
2019-01-02T22:15:11.446Z,56.80
2019-01-02T22:17:20.967Z,57.10
2019-01-02T22:19:29.713Z,56.90
2019-01-02T22:21:38.527Z,57.00
2019-01-02T22:23:47.825Z,57.10
2019-01-02T22:25:56.678Z,57.20
2019-01-02T22:28:05.498Z,57.30
2019-01-02T22:30:15.041Z,57.30
2019-01-02T22:32:23.242Z,57.50
2019-01-02T22:34:31.961Z,57.50
2019-01-02T22:36:40.835Z,57.60
2019-01-02T22:38:49.715Z,57.60
2019-01-02T22:40:58.627Z,57.70
2019-01-02T22:43:07.289Z,57.80
2019-01-02T22:45:16.269Z,57.90
2019-01-02T22:47:25.181Z,58.00
2019-01-02T22:49:34.157Z,58.00
2019-01-02T22:51:42.927Z,58.00
2019-01-02T22:53:51.522Z,58.10
2019-01-02T22:56:01.163Z,58.20
2019-01-02T22:58:09.899Z,58.10
2019-01-02T23:00:20.094Z,58.30
2019-01-02T23:02:29.543Z,58.20
2019-01-02T23:04:42.785Z,58.30
2019-01-02T23:06:53.410Z,58.20
2019-01-02T23:09:04.019Z,58.30
2019-01-02T23:11:34.668Z,58.40
2019-01-02T23:13:46.424Z,58.40
2019-01-02T23:16:01.184Z,58.40
2019-01-02T23:18:14.702Z,58.40
2019-01-02T23:20:38.202Z,58.50
2019-01-02T23:22:53.235Z,59.10
2019-01-02T23:25:07.822Z,58.50
2019-01-02T23:27:22.430Z,58.50
2019-01-02T23:29:37.117Z,58.50
2019-01-02T23:31:51.711Z,58.60
2019-01-02T23:34:19.153Z,58.70
2019-01-02T23:36:27.702Z,58.80
2019-01-02T23:38:39.246Z,58.70
2019-01-02T23:40:58.859Z,58.90
2019-01-02T23:43:14.158Z,58.90
2019-01-02T23:45:29.046Z,58.90
2019-01-02T23:47:43.502Z,58.90
2019-01-02T23:49:56.991Z,59.00
2019-01-02T23:52:06.227Z,59.00
2019-01-02T23:54:19.987Z,59.70
2019-01-02T23:56:32.528Z,59.10
2019-01-02T23:59:00.197Z,59.10
